sensor_id;sensor_type;location;lat;lon;timestamp;pressure;altitude;pressure_sealevel;temperature;humidity
46942;BME280;32676;52.630;4.896;2023-11-21T00:00:37;100355.25;;;9.42;88.97
46942;BME280;32676;52.630;4.896;2023-11-21T00:03:03;100360.38;;;9.45;88.97
46942;BME280;32676;52.630;4.896;2023-11-21T00:05:30;100371.69;;;9.47;89.02
46942;BME280;32676;52.630;4.896;2023-11-21T00:07:56;100366.75;;;9.38;89.15
46942;BME280;32676;52.630;4.896;2023-11-21T00:10:23;100388.16;;;9.51;88.90
46942;BME280;32676;52.630;4.896;2023-11-21T00:12:49;100392.56;;;9.50;89.08
46942;BME280;32676;52.630;4.896;2023-11-21T00:15:16;100401.22;;;9.52;89.07
46942;BME280;32676;52.630;4.896;2023-11-21T00:17:45;100404.66;;;9.54;89.13
46942;BME280;32676;52.630;4.896;2023-11-21T00:20:12;100411.63;;;9.55;89.13
46942;BME280;32676;52.630;4.896;2023-11-21T00:22:39;100418.56;;;9.56;89.33
46942;BME280;32676;52.630;4.896;2023-11-21T00:25:07;100422.91;;;9.57;88.98
46942;BME280;32676;52.630;4.896;2023-11-21T00:27:34;100427.22;;;9.58;89.17
46942;BME280;32676;52.630;4.896;2023-11-21T00:30:01;100428.97;;;9.59;89.04
46942;BME280;32676;52.630;4.896;2023-11-21T00:32:29;100422.22;;;9.52;89.20
46942;BME280;32676;52.630;4.896;2023-11-21T00:34:57;100435.94;;;9.60;89.33
46942;BME280;32676;52.630;4.896;2023-11-21T00:37:24;100442.88;;;9.61;89.39
46942;BME280;32676;52.630;4.896;2023-11-21T00:39:51;100443.84;;;9.59;89.05
46942;BME280;32676;52.630;4.896;2023-11-21T00:42:17;100444.59;;;9.63;89.44
46942;BME280;32676;52.630;4.896;2023-11-21T00:44:45;100442.88;;;9.61;89.23
46942;BME280;32676;52.630;4.896;2023-11-21T00:47:11;100442.06;;;9.59;89.16
46942;BME280;32676;52.630;4.896;2023-11-21T00:49:38;100430.88;;;9.54;89.23
46942;BME280;32676;52.630;4.896;2023-11-21T00:52:06;100435.97;;;9.59;89.06
46942;BME280;32676;52.630;4.896;2023-11-21T00:54:33;100432.47;;;9.58;89.24
46942;BME280;32676;52.630;4.896;2023-11-21T00:56:59;100428.16;;;9.57;89.11
46942;BME280;32676;52.630;4.896;2023-11-21T00:59:26;100416.88;;;9.55;89.05
46942;BME280;32676;52.630;4.896;2023-11-21T01:01:52;100416.97;;;9.52;88.83
46942;BME280;32676;52.630;4.896;2023-11-21T01:04:19;100422.13;;;9.55;88.94
46942;BME280;32676;52.630;4.896;2023-11-21T01:06:45;100408.31;;;9.50;88.86
46942;BME280;32676;52.630;4.896;2023-11-21T01:09:13;100424.78;;;9.54;89.13
46942;BME280;32676;52.630;4.896;2023-11-21T01:11:40;100427.38;;;9.55;88.83
46942;BME280;32676;52.630;4.896;2023-11-21T01:14:06;100434.31;;;9.56;89.13
46942;BME280;32676;52.630;4.896;2023-11-21T01:16:34;100429.28;;;9.50;89.03
46942;BME280;32676;52.630;4.896;2023-11-21T01:19:01;100451.72;;;9.59;89.36
46942;BME280;32676;52.630;4.896;2023-11-21T01:21:27;100443.81;;;9.60;89.23
46942;BME280;32676;52.630;4.896;2023-11-21T01:23:54;100460.34;;;9.63;89.35
46942;BME280;32676;52.630;4.896;2023-11-21T01:26:22;100460.34;;;9.63;89.24
46942;BME280;32676;52.630;4.896;2023-11-21T01:28:48;100457.00;;;9.57;89.56
46942;BME280;32676;52.630;4.896;2023-11-21T01:31:15;100469.00;;;9.65;89.58
46942;BME280;32676;52.630;4.896;2023-11-21T01:33:41;100472.53;;;9.64;89.57
46942;BME280;32676;52.630;4.896;2023-11-21T01:36:09;100469.06;;;9.63;89.91
46942;BME280;32676;52.630;4.896;2023-11-21T01:38:35;100477.72;;;9.65;89.95
46942;BME280;32676;52.630;4.896;2023-11-21T01:41:02;100491.59;;;9.69;90.00
46942;BME280;32676;52.630;4.896;2023-11-21T01:43:30;100491.69;;;9.66;89.93
46942;BME280;32676;52.630;4.896;2023-11-21T01:45:57;100473.06;;;9.48;90.07
46942;BME280;32676;52.630;4.896;2023-11-21T01:48:23;100510.69;;;9.74;90.23
46942;BME280;32676;52.630;4.896;2023-11-21T01:50:51;100519.44;;;9.73;90.32
46942;BME280;32676;52.630;4.896;2023-11-21T01:53:17;100519.44;;;9.73;90.33
46942;BME280;32676;52.630;4.896;2023-11-21T01:55:45;100518.56;;;9.74;90.32
46942;BME280;32676;52.630;4.896;2023-11-21T01:58:11;100522.13;;;9.71;90.45
46942;BME280;32676;52.630;4.896;2023-11-21T02:00:40;100523.78;;;9.74;90.39
46942;BME280;32676;52.630;4.896;2023-11-21T02:03:07;100532.41;;;9.77;90.51
46942;BME280;32676;52.630;4.896;2023-11-21T02:05:34;100536.75;;;9.78;90.42
46942;BME280;32676;52.630;4.896;2023-11-21T02:08:01;100547.19;;;9.80;90.58
46942;BME280;32676;52.630;4.896;2023-11-21T02:10:28;100562.00;;;9.83;90.54
46942;BME280;32676;52.630;4.896;2023-11-21T02:12:56;100576.78;;;9.85;90.40
46942;BME280;32676;52.630;4.896;2023-11-21T02:15:22;100579.31;;;9.88;90.34
46942;BME280;32676;52.630;4.896;2023-11-21T02:17:53;100594.13;;;9.89;90.65
46942;BME280;32676;52.630;4.896;2023-11-21T02:20:20;100586.25;;;9.89;90.72
46942;BME280;32676;52.630;4.896;2023-11-21T02:22:50;100590.59;;;9.90;90.62
46942;BME280;32676;52.630;4.896;2023-11-21T02:25:23;100612.34;;;9.94;90.86
46942;BME280;32676;52.630;4.896;2023-11-21T02:27:49;100613.19;;;9.94;90.65
46942;BME280;32676;52.630;4.896;2023-11-21T02:30:16;100590.91;;;9.81;90.77
46942;BME280;32676;52.630;4.896;2023-11-21T02:32:44;100611.50;;;9.93;90.71
46942;BME280;32676;52.630;4.896;2023-11-21T02:35:11;100614.94;;;9.95;91.00
46942;BME280;32676;52.630;4.896;2023-11-21T02:37:37;100639.34;;;9.97;90.86
46942;BME280;32676;52.630;4.896;2023-11-21T02:40:09;100636.69;;;9.99;91.36
46942;BME280;32676;52.630;4.896;2023-11-21T02:42:37;100638.44;;;9.98;91.02
46942;BME280;32676;52.630;4.896;2023-11-21T02:45:05;100650.66;;;9.99;91.16
46942;BME280;32676;52.630;4.896;2023-11-21T02:47:32;100649.75;;;10.01;91.08
46942;BME280;32676;52.630;4.896;2023-11-21T02:49:58;100640.16;;;9.99;91.16
46942;BME280;32676;52.630;4.896;2023-11-21T02:52:25;100634.09;;;9.97;91.14
46942;BME280;32676;52.630;4.896;2023-11-21T02:54:52;100637.63;;;9.96;90.94
46942;BME280;32676;52.630;4.896;2023-11-21T02:57:20;100633.25;;;9.97;91.12
46942;BME280;32676;52.630;4.896;2023-11-21T02:59:46;100628.25;;;9.89;91.08
46942;BME280;32676;52.630;4.896;2023-11-21T03:02:12;100653.28;;;9.99;90.89
46942;BME280;32676;52.630;4.896;2023-11-21T03:04:39;100633.44;;;9.91;91.05
46942;BME280;32676;52.630;4.896;2023-11-21T03:07:05;100634.97;;;9.98;91.00
46942;BME280;32676;52.630;4.896;2023-11-21T03:09:32;100613.59;;;9.82;90.77
46942;BME280;32676;52.630;4.896;2023-11-21T03:11:58;100654.19;;;9.98;91.01
46942;BME280;32676;52.630;4.896;2023-11-21T03:14:26;100637.75;;;9.93;90.73
46942;BME280;32676;52.630;4.896;2023-11-21T03:16:52;100641.13;;;9.97;90.77
46942;BME280;32676;52.630;4.896;2023-11-21T03:19:19;100642.03;;;9.96;90.71
46942;BME280;32676;52.630;4.896;2023-11-21T03:21:45;100641.19;;;9.95;90.71
46942;BME280;32676;52.630;4.896;2023-11-21T03:24:12;100632.50;;;9.93;90.42
46942;BME280;32676;52.630;4.896;2023-11-21T03:26:38;100622.00;;;9.93;90.53
46942;BME280;32676;52.630;4.896;2023-11-21T03:29:04;100622.94;;;9.91;90.55
46942;BME280;32676;52.630;4.896;2023-11-21T03:31:32;100609.88;;;9.89;90.45
46942;BME280;32676;52.630;4.896;2023-11-21T03:33:59;100600.47;;;9.82;90.18
46942;BME280;32676;52.630;4.896;2023-11-21T03:36:25;100587.25;;;9.85;90.28
46942;BME280;32676;52.630;4.896;2023-11-21T03:38:51;100575.25;;;9.78;90.06
46942;BME280;32676;52.630;4.896;2023-11-21T03:41:18;100583.84;;;9.83;90.03
46942;BME280;32676;52.630;4.896;2023-11-21T03:43:45;100589.09;;;9.83;89.97
46942;BME280;32676;52.630;4.896;2023-11-21T03:46:11;100595.13;;;9.85;90.00
46942;BME280;32676;52.630;4.896;2023-11-21T03:48:40;100599.50;;;9.86;90.23
46942;BME280;32676;52.630;4.896;2023-11-21T03:51:07;100587.56;;;9.76;89.95
46942;BME280;32676;52.630;4.896;2023-11-21T03:53:33;100606.44;;;9.87;90.23
46942;BME280;32676;52.630;4.896;2023-11-21T03:56:02;100610.84;;;9.87;90.46
46942;BME280;32676;52.630;4.896;2023-11-21T03:58:29;100595.41;;;9.77;90.42
46942;BME280;32676;52.630;4.896;2023-11-21T04:00:55;100607.31;;;9.88;90.39
46942;BME280;32676;52.630;4.896;2023-11-21T04:03:22;100621.28;;;9.88;90.53
46942;BME280;32676;52.630;4.896;2023-11-21T04:05:49;100628.19;;;9.91;90.47
46942;BME280;32676;52.630;4.896;2023-11-21T04:08:16;100629.03;;;9.91;90.57
46942;BME280;32676;52.630;4.896;2023-11-21T04:10:42;100650.81;;;9.95;90.90
46942;BME280;32676;52.630;4.896;2023-11-21T04:13:08;100651.69;;;9.95;90.73
46942;BME280;32676;52.630;4.896;2023-11-21T04:15:35;100660.34;;;9.97;91.00
46942;BME280;32676;52.630;4.896;2023-11-21T04:18:02;100662.06;;;9.98;90.80
46942;BME280;32676;52.630;4.896;2023-11-21T04:20:29;100662.06;;;9.98;90.78
46942;BME280;32676;52.630;4.896;2023-11-21T04:22:57;100662.06;;;9.98;90.85
46942;BME280;32676;52.630;4.896;2023-11-21T04:25:23;100670.75;;;10.01;90.89
46942;BME280;32676;52.630;4.896;2023-11-21T04:27:50;100683.78;;;10.04;90.76
46942;BME280;32676;52.630;4.896;2023-11-21T04:30:16;100688.13;;;10.05;90.81
46942;BME280;32676;52.630;4.896;2023-11-21T04:32:43;100677.94;;;9.95;90.68
46942;BME280;32676;52.630;4.896;2023-11-21T04:35:09;100717.72;;;10.10;90.77
46942;BME280;32676;52.630;4.896;2023-11-21T04:37:36;100723.78;;;10.12;90.78
46942;BME280;32676;52.630;4.896;2023-11-21T04:40:04;100723.81;;;10.10;90.57
46942;BME280;32676;52.630;4.896;2023-11-21T04:42:33;100735.97;;;10.13;90.76
46942;BME280;32676;52.630;4.896;2023-11-21T04:45:00;100742.03;;;10.15;90.33
46942;BME280;32676;52.630;4.896;2023-11-21T04:47:26;100732.47;;;10.14;90.61
46942;BME280;32676;52.630;4.896;2023-11-21T04:49:53;100722.84;;;10.13;90.38
46942;BME280;32676;52.630;4.896;2023-11-21T04:52:19;100724.66;;;10.11;90.59
46942;BME280;32676;52.630;4.896;2023-11-21T04:54:46;100709.03;;;10.08;90.11
46942;BME280;32676;52.630;4.896;2023-11-21T04:57:14;100707.41;;;10.04;90.47
46942;BME280;32676;52.630;4.896;2023-11-21T04:59:43;100705.56;;;10.06;90.30
46942;BME280;32676;52.630;4.896;2023-11-21T05:02:09;100702.91;;;10.07;90.03
46942;BME280;32676;52.630;4.896;2023-11-21T05:04:36;100705.56;;;10.06;90.15
46942;BME280;32676;52.630;4.896;2023-11-21T05:07:02;100707.31;;;10.07;90.11
46942;BME280;32676;52.630;4.896;2023-11-21T05:09:29;100716.91;;;10.08;89.72
46942;BME280;32676;52.630;4.896;2023-11-21T05:11:57;100703.97;;;10.02;89.78
46942;BME280;32676;52.630;4.896;2023-11-21T05:14:26;100724.66;;;10.11;89.78
46942;BME280;32676;52.630;4.896;2023-11-21T05:16:53;100716.09;;;10.06;89.85
46942;BME280;32676;52.630;4.896;2023-11-21T05:19:19;100724.66;;;10.11;89.86
46942;BME280;32676;52.630;4.896;2023-11-21T05:21:46;100724.66;;;10.11;89.69
46942;BME280;32676;52.630;4.896;2023-11-21T05:24:12;100721.34;;;10.06;90.04
46942;BME280;32676;52.630;4.896;2023-11-21T05:26:39;100717.81;;;10.07;89.98
46942;BME280;32676;52.630;4.896;2023-11-21T05:29:05;100703.03;;;10.04;90.28
46942;BME280;32676;52.630;4.896;2023-11-21T05:31:33;100701.28;;;10.03;90.32
46942;BME280;32676;52.630;4.896;2023-11-21T05:34:00;100681.34;;;9.97;90.91
46942;BME280;32676;52.630;4.896;2023-11-21T05:36:26;100667.44;;;9.95;91.01
46942;BME280;32676;52.630;4.896;2023-11-21T05:38:53;100658.84;;;9.90;91.27
46942;BME280;32676;52.630;4.896;2023-11-21T05:41:19;100657.03;;;9.92;91.19
46942;BME280;32676;52.630;4.896;2023-11-21T05:43:48;100662.28;;;9.92;91.53
46942;BME280;32676;52.630;4.896;2023-11-21T05:46:15;100650.03;;;9.91;91.48
46942;BME280;32676;52.630;4.896;2023-11-21T05:48:43;100650.97;;;9.90;91.95
46942;BME280;32676;52.630;4.896;2023-11-21T05:51:10;100654.44;;;9.91;91.64
46942;BME280;32676;52.630;4.896;2023-11-21T05:53:37;100650.16;;;9.88;91.78
46942;BME280;32676;52.630;4.896;2023-11-21T05:56:04;100641.47;;;9.86;92.13
46942;BME280;32676;52.630;4.896;2023-11-21T05:58:31;100632.91;;;9.81;92.04
46942;BME280;32676;52.630;4.896;2023-11-21T06:00:57;100644.91;;;9.88;91.85
46942;BME280;32676;52.630;4.896;2023-11-21T06:03:25;100644.16;;;9.85;91.87
46942;BME280;32676;52.630;4.896;2023-11-21T06:05:52;100644.91;;;9.88;91.99
46942;BME280;32676;52.630;4.896;2023-11-21T06:08:19;100644.06;;;9.88;91.85
46942;BME280;32676;52.630;4.896;2023-11-21T06:10:45;100646.59;;;9.89;91.58
46942;BME280;32676;52.630;4.896;2023-11-21T06:13:14;100627.66;;;9.81;91.63
46942;BME280;32676;52.630;4.896;2023-11-21T06:15:41;100618.97;;;9.79;91.30
46942;BME280;32676;52.630;4.896;2023-11-21T06:18:07;100621.47;;;9.82;91.35
46942;BME280;32676;52.630;4.896;2023-11-21T06:20:35;100623.25;;;9.82;91.34
46942;BME280;32676;52.630;4.896;2023-11-21T06:23:04;100615.41;;;9.80;91.19
46942;BME280;32676;52.630;4.896;2023-11-21T06:25:30;100613.72;;;9.79;91.12
46942;BME280;32676;52.630;4.896;2023-11-21T06:27:58;100608.47;;;9.79;91.33
46942;BME280;32676;52.630;4.896;2023-11-21T06:30:24;100612.00;;;9.78;91.26
46942;BME280;32676;52.630;4.896;2023-11-21T06:32:51;100612.00;;;9.78;91.20
46942;BME280;32676;52.630;4.896;2023-11-21T06:35:17;100607.66;;;9.77;91.41
46942;BME280;32676;52.630;4.896;2023-11-21T06:37:44;100588.78;;;9.66;91.33
46942;BME280;32676;52.630;4.896;2023-11-21T06:40:14;100603.41;;;9.73;91.25
46942;BME280;32676;52.630;4.896;2023-11-21T06:42:41;100606.75;;;9.78;91.51
46942;BME280;32676;52.630;4.896;2023-11-21T06:45:07;100607.66;;;9.77;91.33
46942;BME280;32676;52.630;4.896;2023-11-21T06:47:36;100595.75;;;9.67;91.53
46942;BME280;32676;52.630;4.896;2023-11-21T06:50:03;100616.38;;;9.77;91.60
46942;BME280;32676;52.630;4.896;2023-11-21T06:52:30;100617.25;;;9.78;91.77
46942;BME280;32676;52.630;4.896;2023-11-21T06:54:56;100623.28;;;9.80;91.82
46942;BME280;32676;52.630;4.896;2023-11-21T06:57:24;100624.22;;;9.79;91.92
46942;BME280;32676;52.630;4.896;2023-11-21T06:59:51;100631.16;;;9.80;91.88
46942;BME280;32676;52.630;4.896;2023-11-21T07:02:17;100629.44;;;9.80;92.01
46942;BME280;32676;52.630;4.896;2023-11-21T07:04:44;100631.97;;;9.82;91.86
46942;BME280;32676;52.630;4.896;2023-11-21T07:07:11;100636.31;;;9.83;92.30
46942;BME280;32676;52.630;4.896;2023-11-21T07:09:37;100643.31;;;9.84;92.17
46942;BME280;32676;52.630;4.896;2023-11-21T07:12:04;100635.53;;;9.81;92.22
46942;BME280;32676;52.630;4.896;2023-11-21T07:14:35;100629.50;;;9.77;92.23
46942;BME280;32676;52.630;4.896;2023-11-21T07:17:02;100629.47;;;9.79;92.34
46942;BME280;32676;52.630;4.896;2023-11-21T07:19:29;100615.63;;;9.74;92.62
46942;BME280;32676;52.630;4.896;2023-11-21T07:21:56;100618.22;;;9.75;92.64
46942;BME280;32676;52.630;4.896;2023-11-21T07:24:22;100614.69;;;9.75;92.38
46942;BME280;32676;52.630;4.896;2023-11-21T07:26:48;100613.81;;;9.76;92.73
46942;BME280;32676;52.630;4.896;2023-11-21T07:29:15;100617.31;;;9.75;92.97
46942;BME280;32676;52.630;4.896;2023-11-21T07:31:43;100610.38;;;9.74;92.85
46942;BME280;32676;52.630;4.896;2023-11-21T07:34:09;100614.69;;;9.75;92.68
46942;BME280;32676;52.630;4.896;2023-11-21T07:36:37;100617.31;;;9.75;93.02
46942;BME280;32676;52.630;4.896;2023-11-21T07:39:03;100615.63;;;9.74;92.79
46942;BME280;32676;52.630;4.896;2023-11-21T07:41:31;100638.16;;;9.81;92.73
46942;BME280;32676;52.630;4.896;2023-11-21T07:43:58;100672.06;;;9.87;92.89
46942;BME280;32676;52.630;4.896;2023-11-21T07:46:25;100691.09;;;9.94;92.66
46942;BME280;32676;52.630;4.896;2023-11-21T07:48:53;100717.19;;;9.98;92.52
46942;BME280;32676;52.630;4.896;2023-11-21T07:51:20;100742.44;;;10.03;92.28
46942;BME280;32676;52.630;4.896;2023-11-21T07:53:47;100751.13;;;10.05;91.89
46942;BME280;32676;52.630;4.896;2023-11-21T07:56:13;100777.19;;;10.11;91.82
46942;BME280;32676;52.630;4.896;2023-11-21T07:58:40;100794.56;;;10.15;91.67
46942;BME280;32676;52.630;4.896;2023-11-21T08:01:06;100764.31;;;10.03;91.31
46942;BME280;32676;52.630;4.896;2023-11-21T08:03:33;100792.84;;;10.14;90.97
46942;BME280;32676;52.630;4.896;2023-11-21T08:06:01;100781.53;;;10.12;90.49
46942;BME280;32676;52.630;4.896;2023-11-21T08:08:28;100777.19;;;10.11;90.46
46942;BME280;32676;52.630;4.896;2023-11-21T08:10:55;100775.41;;;10.11;90.00
46942;BME280;32676;52.630;4.896;2023-11-21T08:13:22;100782.44;;;10.11;89.92
46942;BME280;32676;52.630;4.896;2023-11-21T08:15:49;100780.72;;;10.10;89.91
46942;BME280;32676;52.630;4.896;2023-11-21T08:18:15;100777.31;;;10.08;89.64
46942;BME280;32676;52.630;4.896;2023-11-21T08:20:43;100787.69;;;10.11;89.80
46942;BME280;32676;52.630;4.896;2023-11-21T08:23:14;100806.78;;;10.16;89.82
46942;BME280;32676;52.630;4.896;2023-11-21T08:25:42;100799.91;;;10.12;89.55
46942;BME280;32676;52.630;4.896;2023-11-21T08:28:08;100821.53;;;10.20;89.75
46942;BME280;32676;52.630;4.896;2023-11-21T08:30:35;100840.69;;;10.24;89.29
46942;BME280;32676;52.630;4.896;2023-11-21T08:33:01;100843.28;;;10.25;89.23
46942;BME280;32676;52.630;4.896;2023-11-21T08:35:28;100845.00;;;10.26;88.81
46942;BME280;32676;52.630;4.896;2023-11-21T08:37:55;100858.94;;;10.28;88.67
46942;BME280;32676;52.630;4.896;2023-11-21T08:40:23;100850.25;;;10.26;88.86
46942;BME280;32676;52.630;4.896;2023-11-21T08:42:50;100843.28;;;10.25;88.28
46942;BME280;32676;52.630;4.896;2023-11-21T08:45:17;100852.88;;;10.26;87.97
46942;BME280;32676;52.630;4.896;2023-11-21T08:47:44;100850.25;;;10.26;87.93
46942;BME280;32676;52.630;4.896;2023-11-21T08:50:11;100871.16;;;10.29;88.02
46942;BME280;32676;52.630;4.896;2023-11-21T08:52:38;100878.09;;;10.33;88.29
46942;BME280;32676;52.630;4.896;2023-11-21T08:55:06;100892.03;;;10.35;87.90
46942;BME280;32676;52.630;4.896;2023-11-21T08:57:35;100887.72;;;10.33;87.93
46942;BME280;32676;52.630;4.896;2023-11-21T09:00:02;100895.53;;;10.34;87.95
46942;BME280;32676;52.630;4.896;2023-11-21T09:02:30;100915.50;;;10.40;87.81
46942;BME280;32676;52.630;4.896;2023-11-21T09:04:57;100928.53;;;10.45;87.84
46942;BME280;32676;52.630;4.896;2023-11-21T09:07:24;100940.72;;;10.46;87.73
46942;BME280;32676;52.630;4.896;2023-11-21T09:09:50;100911.38;;;10.31;87.71
46942;BME280;32676;52.630;4.896;2023-11-21T09:12:17;100927.66;;;10.44;87.63
46942;BME280;32676;52.630;4.896;2023-11-21T09:14:45;100926.78;;;10.44;87.48
46942;BME280;32676;52.630;4.896;2023-11-21T09:17:12;100910.25;;;10.40;87.05
46942;BME280;32676;52.630;4.896;2023-11-21T09:19:39;100909.41;;;10.40;86.78
46942;BME280;32676;52.630;4.896;2023-11-21T09:22:06;100907.78;;;10.35;86.42
46942;BME280;32676;52.630;4.896;2023-11-21T09:24:33;100890.53;;;10.25;86.23
46942;BME280;32676;52.630;4.896;2023-11-21T09:27:00;100916.38;;;10.41;86.43
46942;BME280;32676;52.630;4.896;2023-11-21T09:29:27;100921.66;;;10.41;86.05
46942;BME280;32676;52.630;4.896;2023-11-21T09:31:55;100919.84;;;10.43;85.91
46942;BME280;32676;52.630;4.896;2023-11-21T09:34:24;100932.03;;;10.44;86.15
46942;BME280;32676;52.630;4.896;2023-11-21T09:36:51;100940.72;;;10.46;86.15
46942;BME280;32676;52.630;4.896;2023-11-21T09:39:18;100939.88;;;10.45;85.77
46942;BME280;32676;52.630;4.896;2023-11-21T09:41:49;100943.34;;;10.46;85.79
46942;BME280;32676;52.630;4.896;2023-11-21T09:44:18;100948.56;;;10.47;85.41
46942;BME280;32676;52.630;4.896;2023-11-21T09:46:47;100949.44;;;10.48;85.47
46942;BME280;32676;52.630;4.896;2023-11-21T09:49:18;100962.47;;;10.51;85.17
46942;BME280;32676;52.630;4.896;2023-11-21T09:51:51;100973.00;;;10.51;85.03
46942;BME280;32676;52.630;4.896;2023-11-21T09:54:20;100974.75;;;10.50;85.11
46942;BME280;32676;52.630;4.896;2023-11-21T09:56:47;100958.22;;;10.47;85.20
46942;BME280;32676;52.630;4.896;2023-11-21T09:59:15;100943.34;;;10.46;85.32
46942;BME280;32676;52.630;4.896;2023-11-21T10:01:42;100937.28;;;10.44;85.02
46942;BME280;32676;52.630;4.896;2023-11-21T10:04:09;100926.97;;;10.37;85.19
46942;BME280;32676;52.630;4.896;2023-11-21T10:06:39;100919.91;;;10.40;85.06
46942;BME280;32676;52.630;4.896;2023-11-21T10:09:07;100928.59;;;10.42;85.07
46942;BME280;32676;52.630;4.896;2023-11-21T10:11:39;100936.44;;;10.43;84.95
46942;BME280;32676;52.630;4.896;2023-11-21T10:14:08;100942.66;;;10.41;84.81
46942;BME280;32676;52.630;4.896;2023-11-21T10:16:35;100948.69;;;10.44;85.17
46942;BME280;32676;52.630;4.896;2023-11-21T10:19:03;100966.97;;;10.47;84.92
46942;BME280;32676;52.630;4.896;2023-11-21T10:21:32;100969.59;;;10.47;84.59
46942;BME280;32676;52.630;4.896;2023-11-21T10:24:00;100995.63;;;10.55;84.47
46942;BME280;32676;52.630;4.896;2023-11-21T10:26:26;100988.78;;;10.49;83.87
46942;BME280;32676;52.630;4.896;2023-11-21T10:28:57;100976.56;;;10.48;83.89
46942;BME280;32676;52.630;4.896;2023-11-21T10:31:25;100967.16;;;10.41;83.40
46942;BME280;32676;52.630;4.896;2023-11-21T10:33:53;100959.09;;;10.47;83.18
46942;BME280;32676;52.630;4.896;2023-11-21T10:36:25;100937.41;;;10.41;83.34
46942;BME280;32676;52.630;4.896;2023-11-21T10:38:52;100930.41;;;10.40;83.23
46942;BME280;32676;52.630;4.896;2023-11-21T10:41:21;100938.31;;;10.40;83.33
46942;BME280;32676;52.630;4.896;2023-11-21T10:43:47;100914.19;;;10.25;83.69
46942;BME280;32676;52.630;4.896;2023-11-21T10:46:14;100952.19;;;10.43;83.44
46942;BME280;32676;52.630;4.896;2023-11-21T10:48:41;100935.69;;;10.40;83.67
46942;BME280;32676;52.630;4.896;2023-11-21T10:51:08;100940.94;;;10.40;83.57
46942;BME280;32676;52.630;4.896;2023-11-21T10:53:38;100956.59;;;10.43;83.75
46942;BME280;32676;52.630;4.896;2023-11-21T10:56:06;100958.28;;;10.45;84.04
46942;BME280;32676;52.630;4.896;2023-11-21T10:58:37;100951.47;;;10.38;83.94
46942;BME280;32676;52.630;4.896;2023-11-21T11:01:06;100970.47;;;10.48;83.83
46942;BME280;32676;52.630;4.896;2023-11-21T11:03:34;100988.75;;;10.51;83.69
46942;BME280;32676;52.630;4.896;2023-11-21T11:06:03;100984.59;;;10.44;83.36
46942;BME280;32676;52.630;4.896;2023-11-21T11:08:33;101012.25;;;10.57;83.16
46942;BME280;32676;52.630;4.896;2023-11-21T11:11:01;101003.50;;;10.55;83.34
46942;BME280;32676;52.630;4.896;2023-11-21T11:13:28;100992.19;;;10.53;82.81
46942;BME280;32676;52.630;4.896;2023-11-21T11:15:58;100997.44;;;10.53;83.06
46942;BME280;32676;52.630;4.896;2023-11-21T11:18:27;100986.13;;;10.51;83.06
46942;BME280;32676;52.630;4.896;2023-11-21T11:20:54;100974.84;;;10.47;82.77
46942;BME280;32676;52.630;4.896;2023-11-21T11:23:36;100944.56;;;10.35;82.38
46942;BME280;32676;52.630;4.896;2023-11-21T11:26:19;100947.91;;;10.41;82.47
46942;BME280;32676;52.630;4.896;2023-11-21T11:28:57;100930.63;;;10.33;82.14
46942;BME280;32676;52.630;4.896;2023-11-21T11:31:39;100935.75;;;10.36;82.13
46942;BME280;32676;52.630;4.896;2023-11-21T11:34:16;100918.28;;;10.35;81.93
46942;BME280;32676;52.630;4.896;2023-11-21T11:36:47;100920.09;;;10.33;81.46
46942;BME280;32676;52.630;4.896;2023-11-21T11:39:27;100916.56;;;10.34;81.20
46942;BME280;32676;52.630;4.896;2023-11-21T11:41:55;100935.75;;;10.36;81.25
46942;BME280;32676;52.630;4.896;2023-11-21T11:44:50;100962.72;;;10.43;81.76
46942;BME280;32676;52.630;4.896;2023-11-21T11:47:22;100971.38;;;10.47;81.78
46942;BME280;32676;52.630;4.896;2023-11-21T11:50:05;100979.25;;;10.47;81.34
46942;BME280;32676;52.630;4.896;2023-11-21T11:52:39;100998.38;;;10.52;81.41
46942;BME280;32676;52.630;4.896;2023-11-21T11:55:08;100974.19;;;10.41;81.15
46942;BME280;32676;52.630;4.896;2023-11-21T11:57:39;100972.25;;;10.46;81.10
46942;BME280;32676;52.630;4.896;2023-11-21T12:00:16;100960.22;;;10.38;80.86
46942;BME280;32676;52.630;4.896;2023-11-21T12:02:47;100962.72;;;10.43;80.95
46942;BME280;32676;52.630;4.896;2023-11-21T12:05:16;100935.91;;;10.30;80.71
46942;BME280;32676;52.630;4.896;2023-11-21T12:07:45;100944.44;;;10.38;80.39
46942;BME280;32676;52.630;4.896;2023-11-21T12:10:14;100939.31;;;10.35;80.52
46942;BME280;32676;52.630;4.896;2023-11-21T12:12:43;100935.75;;;10.36;80.75
46942;BME280;32676;52.630;4.896;2023-11-21T12:15:11;100947.97;;;10.39;80.71
46942;BME280;32676;52.630;4.896;2023-11-21T12:17:38;100974.88;;;10.46;80.69
46942;BME280;32676;52.630;4.896;2023-11-21T12:20:07;100995.75;;;10.52;80.65
46942;BME280;32676;52.630;4.896;2023-11-21T12:22:42;101048.03;;;10.61;80.78
46942;BME280;32676;52.630;4.896;2023-11-21T12:25:08;101094.06;;;10.74;80.70
46942;BME280;32676;52.630;4.896;2023-11-21T12:27:34;101088.91;;;10.71;80.41
46942;BME280;32676;52.630;4.896;2023-11-21T12:30:01;101073.22;;;10.68;80.25
46942;BME280;32676;52.630;4.896;2023-11-21T12:32:28;101069.78;;;10.66;80.23
46942;BME280;32676;52.630;4.896;2023-11-21T12:34:55;101038.41;;;10.60;80.62
46942;BME280;32676;52.630;4.896;2023-11-21T12:37:23;101016.72;;;10.53;80.63
46942;BME280;32676;52.630;4.896;2023-11-21T12:39:49;101003.63;;;10.52;80.55
46942;BME280;32676;52.630;4.896;2023-11-21T12:42:16;100991.50;;;10.48;80.57
46942;BME280;32676;52.630;4.896;2023-11-21T12:44:45;100974.06;;;10.44;80.87
46942;BME280;32676;52.630;4.896;2023-11-21T12:47:16;100946.22;;;10.38;80.81
46942;BME280;32676;52.630;4.896;2023-11-21T12:49:43;100941.94;;;10.35;80.61
46942;BME280;32676;52.630;4.896;2023-11-21T12:52:10;100926.25;;;10.32;80.73
46942;BME280;32676;52.630;4.896;2023-11-21T12:54:38;100929.78;;;10.31;81.01
46942;BME280;32676;52.630;4.896;2023-11-21T12:57:05;100944.56;;;10.35;80.83